sensor_id;sensor_type;location;lat;lon;timestamp;pressure;altitude;pressure_sealevel;temperature;humidity
63552;BME280;49698;48.072;7.800;2023-05-20T00:00:33;99468.56;;;12.60;73.37
63552;BME280;49698;48.072;7.800;2023-05-20T00:03:01;99472.84;;;12.61;73.32
63552;BME280;49698;48.072;7.800;2023-05-20T00:05:29;99464.75;;;12.61;73.39
63552;BME280;49698;48.072;7.800;2023-05-20T00:07:59;99463.16;;;12.60;73.59
63552;BME280;49698;48.072;7.800;2023-05-20T00:10:30;99460.38;;;12.65;73.36
63552;BME280;49698;48.072;7.800;2023-05-20T00:12:58;99461.38;;;12.69;73.55
63552;BME280;49698;48.072;7.800;2023-05-20T00:15:26;99453.59;;;12.67;73.57
63552;BME280;49698;48.072;7.800;2023-05-20T00:17:54;99466.19;;;12.72;73.43
63552;BME280;49698;48.072;7.800;2023-05-20T00:20:22;99464.03;;;12.74;73.25
63552;BME280;49698;48.072;7.800;2023-05-20T00:22:51;99465.31;;;12.77;73.32
63552;BME280;49698;48.072;7.800;2023-05-20T00:25:20;99460.44;;;12.79;73.43
63552;BME280;49698;48.072;7.800;2023-05-20T00:27:48;99457.94;;;12.82;73.28
63552;BME280;49698;48.072;7.800;2023-05-20T00:30:16;99462.44;;;12.87;73.15
63552;BME280;49698;48.072;7.800;2023-05-20T00:32:44;99459.66;;;12.92;73.00
63552;BME280;49698;48.072;7.800;2023-05-20T00:35:12;99462.25;;;12.97;72.86
63552;BME280;49698;48.072;7.800;2023-05-20T00:37:40;99457.69;;;12.97;73.00
63552;BME280;49698;48.072;7.800;2023-05-20T00:40:08;99453.88;;;12.98;72.99
63552;BME280;49698;48.072;7.800;2023-05-20T00:42:39;99453.28;;;13.02;73.00
63552;BME280;49698;48.072;7.800;2023-05-20T00:45:08;99446.78;;;13.03;73.16
63552;BME280;49698;48.072;7.800;2023-05-20T00:47:37;99437.91;;;13.02;73.21
63552;BME280;49698;48.072;7.800;2023-05-20T00:50:07;99437.09;;;13.02;73.05
63552;BME280;49698;48.072;7.800;2023-05-20T00:52:36;99437.31;;;13.05;73.10
63552;BME280;49698;48.072;7.800;2023-05-20T00:55:05;99438.09;;;13.06;73.32
63552;BME280;49698;48.072;7.800;2023-05-20T00:57:33;99435.88;;;13.08;73.32
63552;BME280;49698;48.072;7.800;2023-05-20T01:00:04;99427.78;;;13.08;73.40
63552;BME280;49698;48.072;7.800;2023-05-20T01:02:34;99422.97;;;13.05;73.25
63552;BME280;49698;48.072;7.800;2023-05-20T01:05:02;99420.13;;;13.01;73.37
63552;BME280;49698;48.072;7.800;2023-05-20T01:07:31;99426.78;;;13.04;73.49
63552;BME280;49698;48.072;7.800;2023-05-20T01:09:59;99428.91;;;13.07;73.41
63552;BME280;49698;48.072;7.800;2023-05-20T01:12:30;99425.41;;;13.06;73.39
63552;BME280;49698;48.072;7.800;2023-05-20T01:15:06;99420.69;;;12.98;73.46
63552;BME280;49698;48.072;7.800;2023-05-20T01:17:37;99421.28;;;12.95;73.85
63552;BME280;49698;48.072;7.800;2023-05-20T01:20:07;99415.69;;;12.91;73.76
63552;BME280;49698;48.072;7.800;2023-05-20T01:22:38;99422.69;;;12.92;73.83
63552;BME280;49698;48.072;7.800;2023-05-20T01:25:08;99413.00;;;12.91;73.83
63552;BME280;49698;48.072;7.800;2023-05-20T01:27:36;99412.41;;;12.94;73.71
63552;BME280;49698;48.072;7.800;2023-05-20T01:30:07;99412.88;;;12.96;73.70
63552;BME280;49698;48.072;7.800;2023-05-20T01:32:37;99410.13;;;13.02;73.71
63552;BME280;49698;48.072;7.800;2023-05-20T01:35:07;99412.19;;;13.05;73.84
63552;BME280;49698;48.072;7.800;2023-05-20T01:37:39;99417.69;;;13.00;73.89
63552;BME280;49698;48.072;7.800;2023-05-20T01:40:08;99406.91;;;13.00;74.17
63552;BME280;49698;48.072;7.800;2023-05-20T01:42:38;99410.72;;;12.98;74.24
63552;BME280;49698;48.072;7.800;2023-05-20T01:45:07;99415.69;;;12.91;74.45
63552;BME280;49698;48.072;7.800;2023-05-20T01:47:36;99415.69;;;12.91;74.52
63552;BME280;49698;48.072;7.800;2023-05-20T01:50:06;99409.19;;;12.92;74.57
63552;BME280;49698;48.072;7.800;2023-05-20T01:52:34;99410.50;;;12.95;74.53
63552;BME280;49698;48.072;7.800;2023-05-20T01:55:04;99400.72;;;12.99;74.51
63552;BME280;49698;48.072;7.800;2023-05-20T01:57:32;99402.09;;;12.96;74.81
63552;BME280;49698;48.072;7.800;2023-05-20T02:00:00;99392.72;;;12.94;74.90
63552;BME280;49698;48.072;7.800;2023-05-20T02:02:39;99394.09;;;12.91;74.93
63552;BME280;49698;48.072;7.800;2023-05-20T02:05:09;99395.50;;;12.89;75.02
63552;BME280;49698;48.072;7.800;2023-05-20T02:07:37;99394.91;;;12.92;75.08
63552;BME280;49698;48.072;7.800;2023-05-20T02:10:07;99387.00;;;12.95;74.97
63552;BME280;49698;48.072;7.800;2023-05-20T02:12:35;99397.69;;;13.01;74.83
63552;BME280;49698;48.072;7.800;2023-05-20T02:15:05;99392.81;;;13.03;74.49
63552;BME280;49698;48.072;7.800;2023-05-20T02:17:34;99393.31;;;13.05;74.64
63552;BME280;49698;48.072;7.800;2023-05-20T02:20:03;99391.13;;;13.07;74.50
63552;BME280;49698;48.072;7.800;2023-05-20T02:22:33;99389.22;;;13.07;74.40
63552;BME280;49698;48.072;7.800;2023-05-20T02:25:02;99383.53;;;13.09;74.51
63552;BME280;49698;48.072;7.800;2023-05-20T02:27:32;99387.53;;;13.11;74.46
63552;BME280;49698;48.072;7.800;2023-05-20T02:30:00;99389.94;;;13.13;74.25
63552;BME280;49698;48.072;7.800;2023-05-20T02:32:30;99385.81;;;13.15;74.49
63552;BME280;49698;48.072;7.800;2023-05-20T02:34:59;99390.94;;;13.17;74.49
63552;BME280;49698;48.072;7.800;2023-05-20T02:37:29;99386.63;;;13.16;74.44
63552;BME280;49698;48.072;7.800;2023-05-20T02:39:57;99384.75;;;13.16;74.63
63552;BME280;49698;48.072;7.800;2023-05-20T02:42:25;99385.03;;;13.15;74.60
63552;BME280;49698;48.072;7.800;2023-05-20T02:44:55;99386.13;;;13.14;74.84
63552;BME280;49698;48.072;7.800;2023-05-20T02:47:24;99383.44;;;13.14;74.92
63552;BME280;49698;48.072;7.800;2023-05-20T02:49:52;99383.44;;;13.14;75.01
63552;BME280;49698;48.072;7.800;2023-05-20T02:52:20;99378.84;;;13.14;74.86
63552;BME280;49698;48.072;7.800;2023-05-20T02:54:48;99380.72;;;13.14;74.91
63552;BME280;49698;48.072;7.800;2023-05-20T02:57:17;99377.31;;;13.08;75.15
63552;BME280;49698;48.072;7.800;2023-05-20T02:59:45;99373.34;;;13.06;75.33
63552;BME280;49698;48.072;7.800;2023-05-20T03:02:15;99375.63;;;12.98;75.44
63552;BME280;49698;48.072;7.800;2023-05-20T03:04:43;99370.50;;;12.97;75.54
63552;BME280;49698;48.072;7.800;2023-05-20T03:07:12;99366.53;;;12.94;75.89
63552;BME280;49698;48.072;7.800;2023-05-20T03:09:43;99368.03;;;12.87;76.44
63552;BME280;49698;48.072;7.800;2023-05-20T03:12:11;99358.94;;;12.83;76.67
63552;BME280;49698;48.072;7.800;2023-05-20T03:14:39;99360.31;;;12.80;76.83
63552;BME280;49698;48.072;7.800;2023-05-20T03:17:07;99364.59;;;12.81;76.97
63552;BME280;49698;48.072;7.800;2023-05-20T03:19:37;99361.13;;;12.81;77.20
63552;BME280;49698;48.072;7.800;2023-05-20T03:22:05;99365.72;;;12.80;77.28
63552;BME280;49698;48.072;7.800;2023-05-20T03:24:33;99363.59;;;12.77;77.41
63552;BME280;49698;48.072;7.800;2023-05-20T03:27:01;99372.31;;;12.74;77.50
63552;BME280;49698;48.072;7.800;2023-05-20T03:29:29;99366.91;;;12.74;77.68
63552;BME280;49698;48.072;7.800;2023-05-20T03:31:59;99366.63;;;12.76;77.69
63552;BME280;49698;48.072;7.800;2023-05-20T03:34:27;99356.13;;;12.74;77.67
63552;BME280;49698;48.072;7.800;2023-05-20T03:36:57;99354.03;;;12.71;77.75
63552;BME280;49698;48.072;7.800;2023-05-20T03:39:26;99344.94;;;12.67;78.01
63552;BME280;49698;48.072;7.800;2023-05-20T03:41:54;99349.31;;;12.63;78.11
63552;BME280;49698;48.072;7.800;2023-05-20T03:44:22;99344.53;;;12.60;78.35
63552;BME280;49698;48.072;7.800;2023-05-20T03:46:50;99343.50;;;12.56;78.58
63552;BME280;49698;48.072;7.800;2023-05-20T03:49:18;99346.28;;;12.51;78.78
63552;BME280;49698;48.072;7.800;2023-05-20T03:51:46;99345.28;;;12.46;79.25
63552;BME280;49698;48.072;7.800;2023-05-20T03:54:16;99351.06;;;12.40;79.36
63552;BME280;49698;48.072;7.800;2023-05-20T03:56:48;99348.75;;;12.33;79.71
63552;BME280;49698;48.072;7.800;2023-05-20T03:59:18;99342.94;;;12.26;80.08
63552;BME280;49698;48.072;7.800;2023-05-20T04:01:48;99351.38;;;12.19;80.47
63552;BME280;49698;48.072;7.800;2023-05-20T04:04:15;99351.78;;;12.13;80.96
63552;BME280;49698;48.072;7.800;2023-05-20T04:06:43;99341.59;;;12.10;81.05
63552;BME280;49698;48.072;7.800;2023-05-20T04:09:11;99356.16;;;12.09;81.31
63552;BME280;49698;48.072;7.800;2023-05-20T04:11:42;99347.47;;;12.12;81.27
63552;BME280;49698;48.072;7.800;2023-05-20T04:14:10;99347.41;;;12.17;81.02
63552;BME280;49698;48.072;7.800;2023-05-20T04:16:38;99348.41;;;12.21;81.06
63552;BME280;49698;48.072;7.800;2023-05-20T04:19:06;99348.84;;;12.28;81.03
63552;BME280;49698;48.072;7.800;2023-05-20T04:21:34;99356.84;;;12.33;80.81
63552;BME280;49698;48.072;7.800;2023-05-20T04:24:02;99356.47;;;12.40;80.44
63552;BME280;49698;48.072;7.800;2023-05-20T04:26:30;99354.19;;;12.47;80.14
63552;BME280;49698;48.072;7.800;2023-05-20T04:29:01;99344.91;;;12.53;79.91
63552;BME280;49698;48.072;7.800;2023-05-20T04:31:31;99350.72;;;12.60;79.73
63552;BME280;49698;48.072;7.800;2023-05-20T04:33:59;99350.03;;;12.68;79.39
63552;BME280;49698;48.072;7.800;2023-05-20T04:36:29;99348.53;;;12.76;79.18
63552;BME280;49698;48.072;7.800;2023-05-20T04:38:59;99340.34;;;12.81;79.07
63552;BME280;49698;48.072;7.800;2023-05-20T04:41:27;99346.72;;;12.85;78.82
63552;BME280;49698;48.072;7.800;2023-05-20T04:43:55;99351.53;;;12.88;78.79
63552;BME280;49698;48.072;7.800;2023-05-20T04:46:27;99352.53;;;12.92;78.80
63552;BME280;49698;48.072;7.800;2023-05-20T04:48:56;99349.75;;;12.97;78.71
63552;BME280;49698;48.072;7.800;2023-05-20T04:51:24;99356.03;;;13.07;78.56
63552;BME280;49698;48.072;7.800;2023-05-20T04:53:52;99361.03;;;13.13;78.47
63552;BME280;49698;48.072;7.800;2023-05-20T04:56:20;99360.63;;;13.20;78.01
63552;BME280;49698;48.072;7.800;2023-05-20T04:58:49;99357.56;;;13.27;77.77
63552;BME280;49698;48.072;7.800;2023-05-20T05:01:18;99348.56;;;13.31;77.67
63552;BME280;49698;48.072;7.800;2023-05-20T05:03:48;99352.75;;;13.37;77.51
63552;BME280;49698;48.072;7.800;2023-05-20T05:06:16;99353.34;;;13.48;77.28
63552;BME280;49698;48.072;7.800;2023-05-20T05:08:44;99352.03;;;13.59;76.81
63552;BME280;49698;48.072;7.800;2023-05-20T05:11:12;99354.47;;;13.69;76.28
63552;BME280;49698;48.072;7.800;2023-05-20T05:13:40;99354.75;;;13.82;76.09
63552;BME280;49698;48.072;7.800;2023-05-20T05:16:08;99356.56;;;13.86;75.91
63552;BME280;49698;48.072;7.800;2023-05-20T05:18:36;99350.63;;;13.84;76.12
63552;BME280;49698;48.072;7.800;2023-05-20T05:21:06;99346.53;;;13.87;75.86
63552;BME280;49698;48.072;7.800;2023-05-20T05:23:35;99344.38;;;13.98;75.57
63552;BME280;49698;48.072;7.800;2023-05-20T05:26:28;99336.53;;;14.10;75.23
63552;BME280;49698;48.072;7.800;2023-05-20T05:29:00;99327.19;;;14.16;75.07
63552;BME280;49698;48.072;7.800;2023-05-20T05:31:28;99323.88;;;14.19;74.87
63552;BME280;49698;48.072;7.800;2023-05-20T05:33:58;99331.66;;;14.20;74.92
63552;BME280;49698;48.072;7.800;2023-05-20T05:36:28;99332.97;;;14.23;74.63
63552;BME280;49698;48.072;7.800;2023-05-20T05:38:56;99332.03;;;14.28;74.58
63552;BME280;49698;48.072;7.800;2023-05-20T05:41:24;99326.19;;;14.34;74.18
63552;BME280;49698;48.072;7.800;2023-05-20T05:43:53;99324.78;;;14.37;74.22
63552;BME280;49698;48.072;7.800;2023-05-20T05:46:21;99325.59;;;14.37;74.22
63552;BME280;49698;48.072;7.800;2023-05-20T05:48:49;99318.31;;;14.47;74.09
63552;BME280;49698;48.072;7.800;2023-05-20T05:51:17;99317.28;;;14.56;73.93
63552;BME280;49698;48.072;7.800;2023-05-20T05:53:48;99330.22;;;14.68;73.50
63552;BME280;49698;48.072;7.800;2023-05-20T05:56:16;99335.66;;;14.77;72.92
63552;BME280;49698;48.072;7.800;2023-05-20T05:58:45;99334.91;;;14.85;72.53
63552;BME280;49698;48.072;7.800;2023-05-20T06:01:15;99325.19;;;14.84;72.59
63552;BME280;49698;48.072;7.800;2023-05-20T06:03:43;99321.03;;;14.86;72.76
63552;BME280;49698;48.072;7.800;2023-05-20T06:06:11;99325.84;;;14.89;72.76
63552;BME280;49698;48.072;7.800;2023-05-20T06:08:39;99323.13;;;14.89;72.54
63552;BME280;49698;48.072;7.800;2023-05-20T06:11:11;99322.16;;;14.85;72.75
63552;BME280;49698;48.072;7.800;2023-05-20T06:13:43;99313.59;;;14.83;72.77
63552;BME280;49698;48.072;7.800;2023-05-20T06:16:11;99316.28;;;14.83;72.74
63552;BME280;49698;48.072;7.800;2023-05-20T06:18:39;99311.16;;;14.82;72.84
63552;BME280;49698;48.072;7.800;2023-05-20T06:21:08;99310.88;;;14.83;73.07
63552;BME280;49698;48.072;7.800;2023-05-20T06:23:36;99312.47;;;14.84;73.16
63552;BME280;49698;48.072;7.800;2023-05-20T06:26:07;99302.25;;;14.81;73.25
63552;BME280;49698;48.072;7.800;2023-05-20T06:28:38;99305.75;;;14.82;73.26
63552;BME280;49698;48.072;7.800;2023-05-20T06:31:06;99304.97;;;14.81;73.34
63552;BME280;49698;48.072;7.800;2023-05-20T06:33:35;99310.06;;;14.83;73.43
63552;BME280;49698;48.072;7.800;2023-05-20T06:36:07;99300.84;;;14.84;73.58
63552;BME280;49698;48.072;7.800;2023-05-20T06:38:35;99300.38;;;14.90;73.13
63552;BME280;49698;48.072;7.800;2023-05-20T06:41:04;99297.06;;;15.02;73.04
63552;BME280;49698;48.072;7.800;2023-05-20T06:43:32;99285.16;;;15.12;73.01
63552;BME280;49698;48.072;7.800;2023-05-20T06:46:10;99287.69;;;15.17;72.77
63552;BME280;49698;48.072;7.800;2023-05-20T06:48:44;99285.81;;;15.26;72.73
63552;BME280;49698;48.072;7.800;2023-05-20T06:51:12;99280.56;;;15.38;72.40
63552;BME280;49698;48.072;7.800;2023-05-20T06:53:43;99277.69;;;15.52;71.85
63552;BME280;49698;48.072;7.800;2023-05-20T06:56:13;99273.75;;;15.67;71.52
63552;BME280;49698;48.072;7.800;2023-05-20T06:58:42;99277.09;;;15.81;71.18
63552;BME280;49698;48.072;7.800;2023-05-20T07:01:11;99277.72;;;15.96;70.84
63552;BME280;49698;48.072;7.800;2023-05-20T07:03:40;99276.91;;;16.12;70.03
63552;BME280;49698;48.072;7.800;2023-05-20T07:06:10;99262.63;;;16.33;69.02
63552;BME280;49698;48.072;7.800;2023-05-20T07:08:38;99269.25;;;16.53;68.06
63552;BME280;49698;48.072;7.800;2023-05-20T07:11:06;99270.34;;;16.69;67.49
63552;BME280;49698;48.072;7.800;2023-05-20T07:13:34;99268.19;;;16.92;66.67
63552;BME280;49698;48.072;7.800;2023-05-20T07:16:04;99268.78;;;17.19;65.92
63552;BME280;49698;48.072;7.800;2023-05-20T07:18:35;99268.16;;;17.43;64.70
63552;BME280;49698;48.072;7.800;2023-05-20T07:21:03;99272.78;;;17.63;63.98
63552;BME280;49698;48.072;7.800;2023-05-20T07:23:57;99270.72;;;17.81;63.45
63552;BME280;49698;48.072;7.800;2023-05-20T07:26:25;99265.00;;;17.95;63.08
63552;BME280;49698;48.072;7.800;2023-05-20T07:28:54;99266.97;;;18.06;62.55
63552;BME280;49698;48.072;7.800;2023-05-20T07:31:22;99267.56;;;18.12;62.13
63552;BME280;49698;48.072;7.800;2023-05-20T07:34:19;99261.31;;;18.12;61.98
63552;BME280;49698;48.072;7.800;2023-05-20T07:36:49;99261.00;;;18.13;62.18
63552;BME280;49698;48.072;7.800;2023-05-20T07:39:17;99253.97;;;18.12;61.92
63552;BME280;49698;48.072;7.800;2023-05-20T07:41:45;99246.78;;;18.07;61.93
63552;BME280;49698;48.072;7.800;2023-05-20T07:44:13;99245.22;;;18.06;62.37
63552;BME280;49698;48.072;7.800;2023-05-20T07:46:46;99236.03;;;18.11;62.16
63552;BME280;49698;48.072;7.800;2023-05-20T07:49:14;99246.13;;;18.11;62.50
63552;BME280;49698;48.072;7.800;2023-05-20T07:51:44;99237.53;;;18.08;62.52
63552;BME280;49698;48.072;7.800;2023-05-20T07:54:14;99239.78;;;18.06;62.77
63552;BME280;49698;48.072;7.800;2023-05-20T07:56:45;99232.88;;;18.09;62.67
63552;BME280;49698;48.072;7.800;2023-05-20T07:59:13;99238.44;;;18.13;62.48
63552;BME280;49698;48.072;7.800;2023-05-20T08:01:44;99228.47;;;18.04;62.50
63552;BME280;49698;48.072;7.800;2023-05-20T08:04:14;99236.50;;;18.01;62.79
63552;BME280;49698;48.072;7.800;2023-05-20T08:06:43;99242.59;;;17.98;62.87
63552;BME280;49698;48.072;7.800;2023-05-20T08:09:19;99249.16;;;17.97;63.02
63552;BME280;49698;48.072;7.800;2023-05-20T08:11:52;99238.84;;;17.90;63.15
63552;BME280;49698;48.072;7.800;2023-05-20T08:14:20;99238.03;;;17.90;63.22
63552;BME280;49698;48.072;7.800;2023-05-20T08:16:51;99238.72;;;17.87;63.11
63552;BME280;49698;48.072;7.800;2023-05-20T08:19:20;99237.56;;;17.88;63.16
63552;BME280;49698;48.072;7.800;2023-05-20T08:21:50;99243.47;;;17.90;62.87
63552;BME280;49698;48.072;7.800;2023-05-20T08:24:18;99236.13;;;17.90;62.71
63552;BME280;49698;48.072;7.800;2023-05-20T08:26:46;99232.38;;;17.95;62.71
63552;BME280;49698;48.072;7.800;2023-05-20T08:29:18;99237.81;;;17.95;62.68
63552;BME280;49698;48.072;7.800;2023-05-20T08:31:46;99233.78;;;18.01;62.31
63552;BME280;49698;48.072;7.800;2023-05-20T08:34:15;99234.00;;;18.08;62.04
63552;BME280;49698;48.072;7.800;2023-05-20T08:36:44;99235.03;;;18.16;61.84
63552;BME280;49698;48.072;7.800;2023-05-20T08:39:14;99237.88;;;18.19;61.50
63552;BME280;49698;48.072;7.800;2023-05-20T08:41:45;99236.75;;;18.20;61.75
63552;BME280;49698;48.072;7.800;2023-05-20T08:44:15;99234.84;;;18.21;61.72
63552;BME280;49698;48.072;7.800;2023-05-20T08:46:44;99243.69;;;18.30;61.64
63552;BME280;49698;48.072;7.800;2023-05-20T08:49:13;99242.47;;;18.40;61.83
63552;BME280;49698;48.072;7.800;2023-05-20T08:51:41;99238.16;;;18.51;61.52
63552;BME280;49698;48.072;7.800;2023-05-20T08:54:10;99247.91;;;18.64;61.12
63552;BME280;49698;48.072;7.800;2023-05-20T08:56:40;99252.94;;;18.74;60.72
63552;BME280;49698;48.072;7.800;2023-05-20T08:59:08;99248.59;;;18.73;60.31
63552;BME280;49698;48.072;7.800;2023-05-20T09:01:40;99250.91;;;18.71;60.63
63552;BME280;49698;48.072;7.800;2023-05-20T09:04:09;99245.44;;;18.71;60.75
63552;BME280;49698;48.072;7.800;2023-05-20T09:06:44;99243.63;;;18.75;60.18
63552;BME280;49698;48.072;7.800;2023-05-20T09:09:13;99248.16;;;18.84;60.04
63552;BME280;49698;48.072;7.800;2023-05-20T09:11:43;99244.09;;;18.90;59.59
63552;BME280;49698;48.072;7.800;2023-05-20T09:14:11;99240.91;;;18.88;59.52
63552;BME280;49698;48.072;7.800;2023-05-20T09:16:39;99239.31;;;18.87;59.24
63552;BME280;49698;48.072;7.800;2023-05-20T09:19:07;99235.34;;;18.84;59.62
63552;BME280;49698;48.072;7.800;2023-05-20T09:21:36;99243.19;;;18.86;59.54
63552;BME280;49698;48.072;7.800;2023-05-20T09:24:05;99238.19;;;18.88;59.42
63552;BME280;49698;48.072;7.800;2023-05-20T09:26:33;99232.38;;;18.89;59.60
63552;BME280;49698;48.072;7.800;2023-05-20T09:29:03;99235.69;;;18.95;59.36
63552;BME280;49698;48.072;7.800;2023-05-20T09:31:31;99242.25;;;19.06;59.22
63552;BME280;49698;48.072;7.800;2023-05-20T09:34:00;99236.13;;;19.09;58.87
63552;BME280;49698;48.072;7.800;2023-05-20T09:36:28;99239.75;;;19.13;58.92
63552;BME280;49698;48.072;7.800;2023-05-20T09:38:59;99233.38;;;19.21;58.71
63552;BME280;49698;48.072;7.800;2023-05-20T09:41:35;99243.75;;;19.31;58.33
63552;BME280;49698;48.072;7.800;2023-05-20T09:44:07;99243.97;;;19.39;57.87
63552;BME280;49698;48.072;7.800;2023-05-20T09:46:35;99237.94;;;19.45;57.64
63552;BME280;49698;48.072;7.800;2023-05-20T09:49:04;99240.19;;;19.55;57.36
63552;BME280;49698;48.072;7.800;2023-05-20T09:51:34;99237.78;;;19.66;57.25
63552;BME280;49698;48.072;7.800;2023-05-20T09:54:03;99236.59;;;19.79;56.95
63552;BME280;49698;48.072;7.800;2023-05-20T09:56:34;99228.34;;;19.92;56.43
63552;BME280;49698;48.072;7.800;2023-05-20T09:59:05;99226.50;;;19.96;56.21
63552;BME280;49698;48.072;7.800;2023-05-20T10:01:33;99220.78;;;20.01;56.01
63552;BME280;49698;48.072;7.800;2023-05-20T10:04:03;99217.38;;;20.04;56.04
63552;BME280;49698;48.072;7.800;2023-05-20T10:07:07;99209.09;;;20.00;55.73
63552;BME280;49698;48.072;7.800;2023-05-20T10:10:02;99211.97;;;19.92;55.94
63552;BME280;49698;48.072;7.800;2023-05-20T10:12:35;99200.72;;;19.93;55.89
63552;BME280;49698;48.072;7.800;2023-05-20T10:15:20;99202.16;;;20.03;55.81
63552;BME280;49698;48.072;7.800;2023-05-20T10:17:59;99196.00;;;20.22;55.19
63552;BME280;49698;48.072;7.800;2023-05-20T10:20:29;99191.84;;;20.44;54.83
63552;BME280;49698;48.072;7.800;2023-05-20T10:22:58;99193.38;;;20.57;54.50
63552;BME280;49698;48.072;7.800;2023-05-20T10:25:27;99191.84;;;20.60;53.64
63552;BME280;49698;48.072;7.800;2023-05-20T10:28:07;99193.38;;;20.57;53.62
63552;BME280;49698;48.072;7.800;2023-05-20T10:30:37;99184.72;;;20.55;53.76
63552;BME280;49698;48.072;7.800;2023-05-20T10:33:06;99194.84;;;20.55;54.21
63552;BME280;49698;48.072;7.800;2023-05-20T10:35:34;99192.13;;;20.55;53.46
63552;BME280;49698;48.072;7.800;2023-05-20T10:38:10;99177.41;;;20.59;53.41
63552;BME280;49698;48.072;7.800;2023-05-20T10:40:38;99181.97;;;20.71;53.10
63552;BME280;49698;48.072;7.800;2023-05-20T10:43:10;99180.72;;;20.84;52.78
63552;BME280;49698;48.072;7.800;2023-05-20T10:45:49;99191.59;;;21.00;52.57
63552;BME280;49698;48.072;7.800;2023-05-20T10:48:23;99183.72;;;21.14;52.26
63552;BME280;49698;48.072;7.800;2023-05-20T10:50:53;99175.38;;;21.27;51.97
63552;BME280;49698;48.072;7.800;2023-05-20T10:53:23;99183.75;;;21.34;51.95
63552;BME280;49698;48.072;7.800;2023-05-20T10:55:58;99177.19;;;21.38;51.64
63552;BME280;49698;48.072;7.800;2023-05-20T10:58:26;99172.00;;;21.53;51.35
63552;BME280;49698;48.072;7.800;2023-05-20T11:00:55;99167.25;;;21.69;50.90
63552;BME280;49698;48.072;7.800;2023-05-20T11:03:23;99171.94;;;21.68;50.54
63552;BME280;49698;48.072;7.800;2023-05-20T11:05:52;99170.03;;;21.72;50.56
63552;BME280;49698;48.072;7.800;2023-05-20T11:08:20;99155.03;;;21.86;50.37
63552;BME280;49698;48.072;7.800;2023-05-20T11:10:55;99164.22;;;21.97;50.01
63552;BME280;49698;48.072;7.800;2023-05-20T11:13:24;99162.03;;;22.06;49.97
63552;BME280;49698;48.072;7.800;2023-05-20T11:15:52;99159.94;;;22.19;49.46
63552;BME280;49698;48.072;7.800;2023-05-20T11:18:22;99170.75;;;22.35;48.96
63552;BME280;49698;48.072;7.800;2023-05-20T11:20:50;99159.91;;;22.42;48.48
63552;BME280;49698;48.072;7.800;2023-05-20T11:23:20;99176.75;;;22.44;48.44
63552;BME280;49698;48.072;7.800;2023-05-20T11:25:49;99164.31;;;22.24;48.40
63552;BME280;49698;48.072;7.800;2023-05-20T11:28:18;99157.97;;;21.96;49.21
63552;BME280;49698;48.072;7.800;2023-05-20T11:30:47;99147.84;;;22.01;49.29
63552;BME280;49698;48.072;7.800;2023-05-20T11:33:16;99143.06;;;21.94;49.33
63552;BME280;49698;48.072;7.800;2023-05-20T11:35:47;99144.53;;;21.88;49.92
63552;BME280;49698;48.072;7.800;2023-05-20T11:38:16;99143.72;;;21.87;49.97
63552;BME280;49698;48.072;7.800;2023-05-20T11:40:44;99130.66;;;22.00;49.50
63552;BME280;49698;48.072;7.800;2023-05-20T11:43:16;99119.34;;;22.25;49.16
63552;BME280;49698;48.072;7.800;2023-05-20T11:45:46;99118.84;;;22.42;48.69
63552;BME280;49698;48.072;7.800;2023-05-20T11:48:15;99119.81;;;22.57;48.77
63552;BME280;49698;48.072;7.800;2023-05-20T11:50:45;99125.88;;;22.43;48.53
63552;BME280;49698;48.072;7.800;2023-05-20T11:53:14;99111.34;;;22.39;48.47
63552;BME280;49698;48.072;7.800;2023-05-20T11:55:44;99121.91;;;22.40;48.53
63552;BME280;49698;48.072;7.800;2023-05-20T11:58:17;99111.81;;;22.44;48.38
63552;BME280;49698;48.072;7.800;2023-05-20T12:00:45;99116.59;;;22.51;48.24
63552;BME280;49698;48.072;7.800;2023-05-20T12:03:20;99114.31;;;22.57;47.69
63552;BME280;49698;48.072;7.800;2023-05-20T12:05:50;99104.63;;;22.63;48.06
63552;BME280;49698;48.072;7.800;2023-05-20T12:08:18;99111.63;;;22.60;48.16
63552;BME280;49698;48.072;7.800;2023-05-20T12:10:45;99110.06;;;22.59;47.87
63552;BME280;49698;48.072;7.800;2023-05-20T12:13:13;99110.50;;;22.61;47.94
63552;BME280;49698;48.072;7.800;2023-05-20T12:15:41;99118.38;;;22.66;47.73
63552;BME280;49698;48.072;7.800;2023-05-20T12:18:10;99114.47;;;22.67;47.87
63552;BME280;49698;48.072;7.800;2023-05-20T12:20:38;99115.97;;;22.61;48.21
63552;BME280;49698;48.072;7.800;2023-05-20T12:23:07;99102.59;;;22.56;47.67
63552;BME280;49698;48.072;7.800;2023-05-20T12:25:35;99094.69;;;22.51;48.06
63552;BME280;49698;48.072;7.800;2023-05-20T12:28:04;99086.94;;;22.57;47.94
63552;BME280;49698;48.072;7.800;2023-05-20T12:30:33;99080.44;;;22.68;47.86
63552;BME280;49698;48.072;7.800;2023-05-20T12:33:01;99089.50;;;22.73;47.69
63552;BME280;49698;48.072;7.800;2023-05-20T12:35:36;99084.72;;;22.66;47.39
63552;BME280;49698;48.072;7.800;2023-05-20T12:38:05;99082.34;;;22.64;47.71
63552;BME280;49698;48.072;7.800;2023-05-20T12:40:35;99078.06;;;22.67;47.66
63552;BME280;49698;48.072;7.800;2023-05-20T12:43:04;99078.63;;;22.80;47.26
63552;BME280;49698;48.072;7.800;2023-05-20T12:45:32;99076.09;;;22.94;47.46
63552;BME280;49698;48.072;7.800;2023-05-20T12:48:01;99068.06;;;23.08;46.99
63552;BME280;49698;48.072;7.800;2023-05-20T12:50:29;99064.25;;;23.20;47.05
63552;BME280;49698;48.072;7.800;2023-05-20T12:52:57;99060.38;;;23.25;46.85
63552;BME280;49698;48.072;7.800;2023-05-20T12:55:25;99049.00;;;23.23;46.51
63552;BME280;49698;48.072;7.800;2023-05-20T12:57:54;99053.56;;;23.11;46.95
63552;BME280;49698;48.072;7.800;2023-05-20T13:00:22;99057.78;;;23.02;47.12
63552;BME280;49698;48.072;7.800;2023-05-20T13:02:50;99060.41;;;22.91;47.28
63552;BME280;49698;48.072;7.800;2023-05-20T13:05:18;99047.41;;;22.88;46.93
63552;BME280;49698;48.072;7.800;2023-05-20T13:07:46;99058.31;;;22.84;47.07
63552;BME280;49698;48.072;7.800;2023-05-20T13:10:15;99059.91;;;22.85;47.20
63552;BME280;49698;48.072;7.800;2023-05-20T13:12:44;99063.13;;;22.91;46.95